Time;durP1;ratioP1;P1;durP2;ratioP2;P2;SDS_P1;SDS_P2;PMS_P1;PMS_P2;Temp;Humidity;BMP_temperature;BMP_pressure;BME280_temperature;BME280_humidity;BME280_pressure;Samples;Min_cycle;Max_cycle;Signal;HPM_P1;HPM_P2
2021/05/19 00:00:44;;;;;;;31.03;17.87;;;9.80;99.90;;;;;;5186710;28;20219;-67
2021/05/19 00:03:16;;;;;;;32.57;17.60;;;9.80;99.90;;;;;;5187022;28;20202;-68
2021/05/19 00:05:49;;;;;;;28.07;17.77;;;9.80;99.90;;;;;;5187204;28;20199;-67
2021/05/19 00:08:21;;;;;;;32.00;18.30;;;9.70;99.90;;;;;;5186878;28;20231;-67
2021/05/19 00:10:53;;;;;;;29.17;17.70;;;9.70;99.90;;;;;;5187260;28;20234;-68
2021/05/19 00:13:28;;;;;;;31.23;18.43;;;9.70;99.90;;;;;;5187154;28;20210;-65
2021/05/19 00:16:01;;;;;;;31.97;17.80;;;9.70;99.90;;;;;;5187592;28;20236;-68
2021/05/19 00:22:18;;;;;;;30.40;16.77;;;9.60;99.90;;;;;;5187044;28;20183;-68
2021/05/19 00:24:51;;;;;;;30.37;17.03;;;9.60;99.90;;;;;;5187512;28;20195;-67
2021/05/19 00:27:23;;;;;;;29.77;17.37;;;9.50;99.90;;;;;;5185757;28;20199;-67
2021/05/19 00:29:55;;;;;;;28.67;17.30;;;9.50;99.90;;;;;;5185789;28;20194;-67
2021/05/19 00:32:26;;;;;;;30.77;18.57;;;9.50;99.90;;;;;;5187089;28;20198;-66
2021/05/19 00:38:45;;;;;;;29.33;18.03;;;9.40;99.90;;;;;;5187137;28;20605;-67
2021/05/19 00:41:17;;;;;;;33.67;19.80;;;9.40;99.90;;;;;;5186988;28;20209;-65
2021/05/19 00:43:48;;;;;;;29.03;17.80;;;9.40;99.90;;;;;;5185469;28;20199;-67
2021/05/19 00:46:22;;;;;;;31.40;19.53;;;9.40;99.90;;;;;;5187105;28;20217;-66
2021/05/19 00:48:54;;;;;;;34.40;18.90;;;9.40;99.90;;;;;;5187461;28;20278;-67
2021/05/19 00:51:26;;;;;;;31.87;18.47;;;9.40;99.90;;;;;;5187321;28;20206;-66
2021/05/19 00:53:58;;;;;;;32.23;18.60;;;9.40;99.90;;;;;;5187770;28;20553;-68
2021/05/19 00:56:30;;;;;;;33.93;18.80;;;9.40;99.90;;;;;;5186372;28;20195;-66
2021/05/19 00:59:03;;;;;;;36.20;19.17;;;9.40;99.90;;;;;;5187140;28;20195;-69
2021/05/19 01:01:37;;;;;;;27.53;16.70;;;9.30;99.90;;;;;;5187300;28;20191;-68
2021/05/19 01:04:09;;;;;;;35.73;17.50;;;9.30;99.90;;;;;;5187348;28;20655;-67
2021/05/19 01:06:50;;;;;;;32.07;17.23;;;9.30;99.90;;;;;;5187009;28;20247;-68
2021/05/19 01:09:35;;;;;;;30.63;17.23;;;9.30;99.90;;;;;;5187361;28;20191;-67
2021/05/19 01:12:12;;;;;;;31.60;16.43;;;9.30;99.90;;;;;;5187044;28;20658;-67
2021/05/19 01:14:45;;;;;;;31.47;17.17;;;9.30;99.90;;;;;;5186888;28;20290;-67
2021/05/19 01:17:18;;;;;;;29.90;17.10;;;9.30;99.90;;;;;;5186814;28;20206;-67
2021/05/19 01:19:52;;;;;;;28.20;16.50;;;9.30;99.90;;;;;;5186857;28;20223;-67
2021/05/19 01:22:29;;;;;;;27.80;16.27;;;9.30;99.90;;;;;;5186838;28;20546;-67
2021/05/19 01:25:01;;;;;;;27.07;16.43;;;9.30;99.90;;;;;;5186385;28;20191;-66
2021/05/19 01:27:33;;;;;;;26.90;16.20;;;9.20;99.90;;;;;;5186768;28;20218;-69
2021/05/19 01:30:08;;;;;;;25.40;15.20;;;9.20;99.90;;;;;;5186854;28;20191;-66
2021/05/19 01:32:40;;;;;;;28.30;15.70;;;9.20;99.90;;;;;;5189907;28;20195;-68
2021/05/19 01:35:13;;;;;;;24.27;14.70;;;9.20;99.90;;;;;;5190807;28;20213;-70
2021/05/19 01:37:46;;;;;;;26.17;15.00;;;9.20;99.90;;;;;;5191072;28;20249;-66
2021/05/19 01:40:21;;;;;;;23.87;13.90;;;9.20;99.90;;;;;;5190629;28;20214;-67
2021/05/19 01:42:54;;;;;;;23.33;13.97;;;9.20;99.90;;;;;;5190668;28;20278;-69
2021/05/19 01:45:26;;;;;;;25.67;13.80;;;9.20;99.90;;;;;;5190900;28;20253;-68
2021/05/19 01:47:58;;;;;;;21.43;14.13;;;9.20;99.90;;;;;;5189083;28;20194;-67
2021/05/19 01:50:33;;;;;;;26.67;14.50;;;9.20;99.90;;;;;;5189873;28;20195;-67
2021/05/19 01:53:05;;;;;;;23.27;13.60;;;9.20;99.90;;;;;;5190196;28;20197;-68
2021/05/19 01:55:37;;;;;;;22.77;13.67;;;9.10;99.90;;;;;;5190264;28;20226;-67
2021/05/19 01:58:09;;;;;;;24.23;13.07;;;9.10;99.90;;;;;;5189762;28;20191;-67
2021/05/19 02:00:41;;;;;;;23.30;13.17;;;9.10;99.90;;;;;;5190291;28;20225;-67
2021/05/19 02:03:13;;;;;;;25.53;13.73;;;9.10;99.90;;;;;;5190224;28;20195;-67
2021/05/19 02:05:46;;;;;;;22.40;13.80;;;9.10;99.90;;;;;;5189909;28;20206;-67
2021/05/19 02:08:18;;;;;;;21.73;13.13;;;9.10;99.90;;;;;;5191448;28;20241;-69
2021/05/19 02:10:50;;;;;;;25.13;14.03;;;9.10;99.90;;;;;;5191885;28;20207;-68
2021/05/19 02:13:23;;;;;;;26.57;13.37;;;9.00;99.90;;;;;;5191263;28;20191;-66
2021/05/19 02:15:55;;;;;;;26.40;13.10;;;9.00;99.90;;;;;;5191270;28;20215;-66
2021/05/19 02:18:26;;;;;;;22.53;13.13;;;9.00;99.90;;;;;;5190529;28;20199;-69
2021/05/19 02:21:03;;;;;;;19.63;12.70;;;9.00;99.90;;;;;;5190035;28;20215;-67
2021/05/19 02:23:35;;;;;;;22.13;11.47;;;9.00;99.90;;;;;;5188995;28;20337;-68
2021/05/19 02:26:06;;;;;;;23.17;12.63;;;9.00;99.90;;;;;;5188440;28;20199;-68
2021/05/19 02:28:38;;;;;;;25.87;13.30;;;9.00;99.90;;;;;;5189735;28;20561;-67
2021/05/19 02:31:10;;;;;;;23.57;12.47;;;9.00;99.90;;;;;;5189911;28;20192;-67
2021/05/19 02:33:42;;;;;;;20.37;12.33;;;8.90;99.90;;;;;;5189686;28;20187;-67
2021/05/19 02:36:14;;;;;;;20.87;12.60;;;8.90;99.90;;;;;;5189425;28;20210;-66
2021/05/19 02:38:46;;;;;;;19.57;11.97;;;8.90;99.90;;;;;;5189751;28;20577;-66
2021/05/19 02:41:18;;;;;;;22.27;12.17;;;8.90;99.90;;;;;;5189432;28;20242;-67
2021/05/19 02:43:51;;;;;;;19.40;11.67;;;8.90;99.90;;;;;;5188073;28;20195;-67
2021/05/19 02:46:23;;;;;;;19.67;11.80;;;8.90;99.90;;;;;;5189135;28;20191;-67
2021/05/19 02:49:01;;;;;;;18.13;11.77;;;8.80;99.90;;;;;;5189254;28;20265;-66
2021/05/19 02:51:35;;;;;;;18.60;12.67;;;8.80;99.90;;;;;;5188794;28;20191;-67
2021/05/19 02:54:08;;;;;;;19.97;11.47;;;8.80;99.90;;;;;;5188707;28;20191;-67
2021/05/19 02:56:40;;;;;;;20.73;12.50;;;8.80;99.90;;;;;;5189043;28;20586;-68
2021/05/19 02:59:12;;;;;;;20.57;12.40;;;8.80;99.90;;;;;;5187602;28;20552;-67
2021/05/19 03:01:45;;;;;;;21.23;12.43;;;8.70;99.90;;;;;;5188665;28;20233;-68
2021/05/19 03:04:17;;;;;;;21.60;11.70;;;8.70;99.90;;;;;;5188293;28;20195;-66
2021/05/19 03:06:49;;;;;;;18.13;11.37;;;8.70;99.90;;;;;;5186997;28;20249;-67
2021/05/19 03:09:21;;;;;;;23.07;13.07;;;8.70;99.90;;;;;;5188305;28;20191;-68
2021/05/19 03:11:53;;;;;;;18.10;12.33;;;8.70;99.90;;;;;;5188646;28;20202;-66
2021/05/19 03:14:25;;;;;;;23.13;13.50;;;8.70;99.90;;;;;;5171730;28;20564;-67
2021/05/19 03:17:01;;;;;;;26.43;13.10;;;8.60;99.90;;;;;;5188856;28;20194;-67
2021/05/19 03:19:33;;;;;;;24.00;12.53;;;8.60;99.90;;;;;;5188492;28;20226;-66
2021/05/19 03:22:05;;;;;;;21.43;13.83;;;8.60;99.90;;;;;;5188678;28;20195;-67
2021/05/19 03:24:37;;;;;;;22.07;12.70;;;8.60;99.90;;;;;;5188874;28;20198;-66
2021/05/19 03:27:09;;;;;;;22.93;13.97;;;8.60;99.90;;;;;;5188590;28;20191;-67
2021/05/19 03:29:41;;;;;;;25.40;13.47;;;8.60;99.90;;;;;;5188422;28;20203;-67
2021/05/19 03:32:13;;;;;;;25.60;14.77;;;8.60;99.90;;;;;;5189043;28;20237;-67
2021/05/19 03:34:45;;;;;;;29.20;14.37;;;8.60;99.90;;;;;;5189173;28;20191;-67
2021/05/19 03:37:17;;;;;;;26.50;13.83;;;8.60;99.90;;;;;;5188576;28;20202;-66
2021/05/19 03:39:49;;;;;;;26.47;14.13;;;8.70;99.90;;;;;;5187816;28;20199;-66
2021/05/19 03:42:21;;;;;;;23.97;13.60;;;8.70;99.90;;;;;;5188026;28;20600;-67
2021/05/19 03:44:53;;;;;;;27.87;14.47;;;8.70;99.90;;;;;;5188058;28;20209;-65
2021/05/19 03:47:25;;;;;;;22.13;13.70;;;8.80;99.90;;;;;;5187841;28;20191;-68
2021/05/19 03:49:57;;;;;;;24.33;14.57;;;8.80;99.90;;;;;;5188251;28;20199;-67
2021/05/19 03:52:33;;;;;;;24.23;14.70;;;8.90;99.90;;;;;;5187971;28;20195;-67
2021/05/19 03:55:07;;;;;;;26.57;14.13;;;9.00;99.90;;;;;;5188087;28;20195;-66
2021/05/19 03:57:39;;;;;;;25.20;14.23;;;9.20;99.90;;;;;;5187462;28;20198;-66
2021/05/19 04:00:15;;;;;;;20.60;13.90;;;9.30;99.90;;;;;;5187907;28;20577;-67
2021/05/19 04:02:50;;;;;;;22.97;14.10;;;9.40;99.90;;;;;;5187187;28;20249;-68
2021/05/19 04:09:18;;;;;;;24.37;13.73;;;9.70;99.90;;;;;;5182169;28;20222;-69
2021/05/19 04:11:50;;;;;;;23.90;14.23;;;9.90;99.90;;;;;;5187313;28;20527;-66
2021/05/19 04:14:24;;;;;;;25.00;14.83;;;10.00;99.90;;;;;;5187299;28;20235;-67
2021/05/19 04:16:56;;;;;;;27.43;16.37;;;10.10;99.90;;;;;;5186650;28;20223;-67
2021/05/19 04:19:28;;;;;;;23.87;15.23;;;10.20;99.90;;;;;;5186087;28;20191;-67
2021/05/19 04:22:00;;;;;;;23.10;15.20;;;10.20;99.90;;;;;;5186619;28;20309;-67
2021/05/19 04:24:32;;;;;;;26.63;15.47;;;10.40;99.90;;;;;;5186986;28;20191;-67
2021/05/19 04:27:04;;;;;;;23.27;15.33;;;10.40;99.90;;;;;;5186901;28;20206;-69
2021/05/19 04:29:36;;;;;;;25.10;16.03;;;10.60;99.90;;;;;;5186780;28;20202;-67
2021/05/19 04:32:10;;;;;;;30.10;15.20;;;10.60;99.90;;;;;;5186839;28;20195;-68
2021/05/19 04:34:42;;;;;;;25.83;15.50;;;10.70;99.90;;;;;;5186644;28;20202;-66
2021/05/19 04:37:15;;;;;;;25.37;15.97;;;10.60;99.90;;;;;;5186563;28;20282;-67
2021/05/19 04:39:47;;;;;;;25.67;15.53;;;10.60;99.90;;;;;;5186603;28;20198;-68
2021/05/19 04:42:18;;;;;;;28.57;16.57;;;10.60;99.90;;;;;;5186816;28;20195;-66
2021/05/19 04:44:51;;;;;;;26.23;15.60;;;10.60;99.90;;;;;;5186538;28;20191;-67
2021/05/19 04:47:23;;;;;;;23.17;14.97;;;10.60;99.90;;;;;;5186864;28;20195;-66
2021/05/19 04:49:55;;;;;;;23.37;14.27;;;10.60;99.90;;;;;;5186825;28;20531;-68
2021/05/19 04:52:27;;;;;;;23.30;14.73;;;10.60;99.90;;;;;;5186849;28;20718;-68
2021/05/19 04:55:01;;;;;;;21.87;15.47;;;10.80;99.90;;;;;;5186794;28;20195;-67
2021/05/19 04:57:34;;;;;;;22.43;14.50;;;10.90;99.90;;;;;;5186708;28;20642;-67
2021/05/19 05:00:07;;;;;;;26.80;14.93;;;11.10;99.90;;;;;;5185345;28;20199;-68
2021/05/19 05:02:40;;;;;;;25.93;14.80;;;11.10;99.90;;;;;;5186342;28;20202;-69
2021/05/19 05:05:12;;;;;;;25.57;13.47;;;11.20;99.90;;;;;;5185239;28;20198;-69
2021/05/19 05:07:44;;;;;;;19.73;13.00;;;11.20;99.90;;;;;;5190069;28;20261;-68
2021/05/19 05:10:16;;;;;;;20.90;13.17;;;11.30;99.90;;;;;;5190376;28;20297;-68
2021/05/19 05:12:49;;;;;;;25.73;14.07;;;11.40;99.90;;;;;;5190272;28;20198;-68
2021/05/19 05:15:22;;;;;;;20.77;13.03;;;11.50;99.90;;;;;;5190256;28;20217;-67
2021/05/19 05:17:54;;;;;;;21.17;13.63;;;11.50;99.90;;;;;;5190514;28;20710;-69
2021/05/19 05:20:26;;;;;;;21.43;13.20;;;11.50;99.90;;;;;;5188870;28;20218;-71
2021/05/19 05:22:58;;;;;;;19.83;12.97;;;11.50;99.90;;;;;;5189852;28;20234;-69
2021/05/19 05:25:30;;;;;;;18.03;12.53;;;11.50;99.90;;;;;;5187857;28;20686;-70
2021/05/19 05:28:03;;;;;;;23.03;12.57;;;11.50;99.90;;;;;;5188598;28;20253;-69
2021/05/19 05:30:35;;;;;;;20.53;12.70;;;11.60;99.90;;;;;;5188218;28;20191;-68
2021/05/19 05:33:07;;;;;;;18.57;11.73;;;11.50;99.90;;;;;;5188839;28;20221;-73
2021/05/19 05:35:39;;;;;;;21.37;12.53;;;11.70;99.90;;;;;;5188254;28;20195;-70
2021/05/19 05:38:11;;;;;;;18.43;11.90;;;11.70;99.90;;;;;;5188550;28;20209;-70
2021/05/19 05:40:43;;;;;;;16.97;11.30;;;11.80;99.90;;;;;;5190167;28;20281;-69
2021/05/19 05:43:15;;;;;;;20.27;11.50;;;11.90;99.90;;;;;;5189269;28;20214;-69
2021/05/19 05:45:47;;;;;;;16.90;10.90;;;12.10;99.90;;;;;;5189582;28;20222;-71
2021/05/19 05:48:19;;;;;;;18.17;10.20;;;12.20;99.90;;;;;;5187590;28;20246;-70
2021/05/19 05:50:51;;;;;;;17.73;10.23;;;12.30;99.90;;;;;;5188512;28;20238;-70
2021/05/19 05:53:23;;;;;;;17.30;10.47;;;12.50;99.90;;;;;;5126054;29;20712;-72
2021/05/19 05:55:55;;;;;;;18.47;9.90;;;12.60;99.90;;;;;;5126079;29;20348;-70
2021/05/19 05:58:27;;;;;;;15.13;9.10;;;12.90;99.90;;;;;;5125964;29;20244;-70
2021/05/19 06:00:59;;;;;;;15.57;9.47;;;13.70;99.90;;;;;;5125781;29;20240;-71
2021/05/19 06:03:31;;;;;;;13.03;8.43;;;14.70;99.90;;;;;;5125978;29;20197;-67
2021/05/19 06:09:30;;;;;;;9.63;6.75;;;16.90;99.90;;;;;;5119487;28;20248;-71
2021/05/19 06:12:03;;;;;;;11.15;6.55;;;18.00;99.90;;;;;;5171178;28;20678;-71
2021/05/19 06:14:35;;;;;;;12.48;6.95;;;18.80;99.90;;;;;;5188912;28;20187;-69
2021/05/19 06:17:09;;;;;;;11.30;6.72;;;19.30;99.90;;;;;;5188549;28;20199;-71
2021/05/19 06:19:41;;;;;;;9.77;6.18;;;19.80;99.90;;;;;;5188132;28;20197;-69
2021/05/19 06:25:59;;;;;;;11.52;6.03;;;20.80;99.90;;;;;;5186586;28;20186;-69
2021/05/19 06:28:31;;;;;;;10.35;5.28;;;21.30;99.90;;;;;;5186179;28;20202;-68
2021/05/19 06:31:03;;;;;;;9.18;5.55;;;21.50;99.90;;;;;;5186536;28;20187;-70
2021/05/19 06:33:36;;;;;;;8.93;5.13;;;21.90;99.80;;;;;;5187386;28;20699;-69
2021/05/19 06:36:08;;;;;;;8.30;5.00;;;22.30;99.30;;;;;;5187926;28;20191;-67
2021/05/19 06:42:26;;;;;;;7.68;4.38;;;23.20;95.60;;;;;;5188452;28;20219;-67
2021/05/19 06:44:58;;;;;;;8.98;4.68;;;23.70;94.30;;;;;;5187466;28;20202;-66
2021/05/19 06:47:30;;;;;;;7.65;4.13;;;23.40;92.60;;;;;;5187304;28;20230;-69
2021/05/19 06:50:02;;;;;;;11.00;4.40;;;23.10;92.80;;;;;;5187544;28;20195;-70
2021/05/19 06:52:35;;;;;;;9.05;4.00;;;23.50;92.30;;;;;;5187399;28;20282;-69
2021/05/19 06:55:07;;;;;;;5.78;3.22;;;23.00;90.90;;;;;;5187403;28;20210;-70
2021/05/19 06:57:39;;;;;;;6.68;3.40;;;22.50;91.70;;;;;;5188124;28;20195;-68
2021/05/19 07:00:12;;;;;;;4.63;3.00;;;22.50;91.80;;;;;;5186546;28;20191;-68
2021/05/19 07:02:44;;;;;;;5.03;2.80;;;22.40;91.70;;;;;;5188053;28;20239;-68
2021/05/19 07:05:16;;;;;;;5.05;2.63;;;22.60;91.50;;;;;;5188200;28;20195;-68
2021/05/19 07:07:47;;;;;;;4.97;2.83;;;22.90;91.00;;;;;;5187773;28;20199;-69
2021/05/19 07:10:20;;;;;;;6.20;2.25;;;22.70;90.00;;;;;;5187295;28;20335;-70
2021/05/19 07:12:53;;;;;;;5.65;2.38;;;21.90;89.20;;;;;;5187556;28;20194;-70
2021/05/19 07:15:31;;;;;;;5.15;2.55;;;21.20;91.00;;;;;;5169839;28;20195;-66
2021/05/19 07:18:07;;;;;;;4.95;2.83;;;21.10;91.30;;;;;;5174472;28;20198;-71
2021/05/19 07:20:44;;;;;;;4.95;3.00;;;20.60;92.40;;;;;;5189096;28;20226;-69
2021/05/19 07:23:16;;;;;;;7.50;2.80;;;20.30;92.80;;;;;;5185820;28;20205;-68
2021/05/19 07:25:49;;;;;;;11.88;3.30;;;20.60;93.20;;;;;;5186884;28;20693;-69
2021/05/19 07:28:21;;;;;;;5.07;3.05;;;20.00;93.00;;;;;;5186451;28;20198;-67
2021/05/19 07:30:56;;;;;;;5.03;3.10;;;19.80;96.00;;;;;;5187629;28;20221;-66
2021/05/19 07:33:28;;;;;;;7.95;3.30;;;19.70;95.00;;;;;;5185871;28;20198;-68
2021/05/19 07:36:00;;;;;;;6.80;3.33;;;19.40;96.70;;;;;;5186830;28;20207;-68
2021/05/19 07:38:32;;;;;;;5.47;3.50;;;19.40;97.90;;;;;;5185314;28;20210;-67
2021/05/19 07:41:04;;;;;;;8.82;3.63;;;19.10;96.90;;;;;;5186676;28;20223;-67
2021/05/19 07:43:36;;;;;;;5.15;3.53;;;18.70;99.10;;;;;;5186526;28;20199;-67
2021/05/19 07:46:07;;;;;;;7.47;3.83;;;18.70;99.90;;;;;;5186341;28;20187;-67
2021/05/19 07:48:39;;;;;;;9.15;4.57;;;18.70;99.90;;;;;;5186306;28;20257;-66
2021/05/19 07:51:10;;;;;;;7.43;3.85;;;18.70;99.90;;;;;;5186688;28;20191;-67
2021/05/19 07:53:40;;;;;;;7.20;4.30;;;18.70;99.90;;;;;;5186571;28;20187;-66
2021/05/19 07:58:53;;;;;;;5.80;4.70;;;18.50;99.90;;;;;;5186265;28;20653;-67
2021/05/19 08:04:11;;;;;;;8.07;4.05;;;18.30;99.90;;;;;;5185703;28;20685;-66
2021/05/19 08:06:42;;;;;;;5.85;3.78;;;18.10;99.90;;;;;;5186462;28;20186;-66
2021/05/19 08:09:12;;;;;;;5.88;3.55;;;17.50;99.90;;;;;;5180574;28;20226;-67
2021/05/19 08:11:43;;;;;;;6.30;3.45;;;17.30;99.90;;;;;;5186989;28;20176;-69
2021/05/19 08:14:14;;;;;;;6.22;3.10;;;17.20;99.90;;;;;;5186931;28;20175;-66
2021/05/19 08:16:45;;;;;;;6.63;3.80;;;17.10;99.90;;;;;;5187793;28;20210;-68
2021/05/19 08:19:16;;;;;;;6.00;3.50;;;17.30;99.90;;;;;;5187479;28;20175;-68
2021/05/19 08:21:48;;;;;;;5.57;3.58;;;17.30;99.90;;;;;;5187212;28;20569;-69
2021/05/19 08:24:20;;;;;;;4.88;3.00;;;17.00;99.90;;;;;;5186272;28;20525;-69
2021/05/19 08:26:54;;;;;;;5.05;3.22;;;16.80;99.90;;;;;;5188588;28;20195;-69
2021/05/19 08:29:25;;;;;;;9.20;3.35;;;17.10;99.90;;;;;;5187707;28;20198;-68
2021/05/19 08:31:59;;;;;;;6.78;3.20;;;17.40;99.90;;;;;;5185879;28;20198;-66
2021/05/19 08:34:31;;;;;;;4.07;2.78;;;17.50;99.90;;;;;;5187022;28;20186;-66
2021/05/19 08:40:52;;;;;;;5.82;2.55;;;17.70;99.90;;;;;;5188084;28;20273;-69
2021/05/19 08:43:24;;;;;;;8.43;2.77;;;17.80;99.90;;;;;;5191129;28;20194;-56
2021/05/19 08:45:56;;;;;;;7.68;3.08;;;17.50;99.90;;;;;;5189838;28;20201;-54
2021/05/19 08:48:31;;;;;;;6.25;3.17;;;17.20;99.90;;;;;;5191026;28;20199;-58
2021/05/19 08:51:04;;;;;;;4.97;3.20;;;17.30;99.90;;;;;;5190029;28;20202;-49
2021/05/19 08:57:23;;;;;;;6.57;3.22;;;17.30;99.90;;;;;;5190491;28;20178;-48
2021/05/19 08:59:58;;;;;;;4.43;3.10;;;17.40;99.90;;;;;;5190496;28;20199;-55
2021/05/19 09:02:30;;;;;;;5.22;3.25;;;17.50;99.90;;;;;;5191018;28;20577;-51
2021/05/19 09:05:05;;;;;;;8.13;3.03;;;17.40;99.90;;;;;;5190912;28;20187;-48
2021/05/19 09:07:37;;;;;;;6.15;3.20;;;17.50;99.90;;;;;;5191007;28;20209;-55
2021/05/19 09:10:17;;;;;;;7.45;3.65;;;17.50;99.90;;;;;;5190266;28;20234;-63
2021/05/19 09:12:49;;;;;;;5.15;3.53;;;17.60;99.90;;;;;;5190503;28;20205;-60
2021/05/19 09:15:22;;;;;;;6.80;3.17;;;17.80;99.90;;;;;;5189496;28;20231;-50
2021/05/19 09:17:56;;;;;;;5.82;2.92;;;18.00;99.90;;;;;;5190374;28;20210;-50
2021/05/19 09:20:28;;;;;;;8.60;3.22;;;17.80;99.90;;;;;;5189385;28;20194;-49
2021/05/19 09:23:05;;;;;;;5.00;3.17;;;17.60;99.90;;;;;;5190656;28;20247;-56
2021/05/19 09:25:37;;;;;;;6.45;3.60;;;17.60;99.90;;;;;;5190332;28;20195;-47
2021/05/19 09:28:10;;;;;;;6.95;3.60;;;17.60;99.90;;;;;;5189827;28;20283;-55
2021/05/19 09:30:44;;;;;;;5.30;3.17;;;17.50;99.90;;;;;;5189684;28;20196;-56
2021/05/19 09:33:23;;;;;;;7.05;3.47;;;17.50;99.90;;;;;;5189728;28;20194;-60
2021/05/19 09:36:16;;;;;;;3.80;2.90;;;17.60;99.90;;;;;;5190404;28;20202;-56
2021/05/19 09:38:53;;;;;;;6.50;2.40;;;17.20;99.90;;;;;;5188772;28;20287;-56
2021/05/19 09:41:35;;;;;;;4.72;2.75;;;16.90;99.90;;;;;;5190689;28;20218;-67
2021/05/19 09:44:09;;;;;;;5.32;2.72;;;16.90;99.90;;;;;;5191574;28;20643;-70
2021/05/19 09:46:47;;;;;;;4.65;2.63;;;16.90;99.90;;;;;;5191395;28;20626;-67
2021/05/19 09:49:21;;;;;;;6.22;2.60;;;17.00;99.90;;;;;;5190327;28;20202;-68
2021/05/19 09:55:05;;;;;;;5.15;2.85;;;17.10;99.90;;;;;;5156501;22;20280;-68
2021/05/19 09:57:53;;;;;;;7.13;3.30;;;17.30;99.90;;;;;;5544838;22;20238;-68
2021/05/19 10:00:27;;;;;;;4.70;3.20;;;17.40;99.90;;;;;;5191046;28;20247;-67
2021/05/19 10:03:01;;;;;;;12.27;3.55;;;17.60;99.90;;;;;;5171217;28;20225;-70
2021/05/19 10:05:42;;;;;;;5.53;2.80;;;17.50;99.90;;;;;;5192549;28;20649;-68
2021/05/19 10:08:14;;;;;;;5.90;2.25;;;17.30;99.90;;;;;;5187035;28;20292;-71
2021/05/19 10:10:46;;;;;;;5.28;2.83;;;17.30;99.90;;;;;;5208614;28;20216;-73
2021/05/19 10:13:19;;;;;;;6.27;3.03;;;17.30;99.90;;;;;;5203055;28;20667;-70
2021/05/19 10:15:55;;;;;;;4.35;2.83;;;17.20;99.90;;;;;;5189402;28;20209;-71
2021/05/19 10:18:31;;;;;;;8.77;3.67;;;17.20;99.90;;;;;;5217924;28;20224;-70
2021/05/19 10:21:04;;;;;;;7.45;3.10;;;17.10;99.90;;;;;;5183217;28;20670;-68
2021/05/19 10:23:39;;;;;;;7.55;2.97;;;17.30;99.90;;;;;;5203189;28;20645;-70
2021/05/19 10:26:13;;;;;;;5.80;3.03;;;17.30;99.90;;;;;;5193391;28;20193;-70
2021/05/19 10:28:46;;;;;;;4.25;2.85;;;17.40;99.90;;;;;;5201424;28;20549;-70
2021/05/19 10:31:27;;;;;;;4.97;3.28;;;17.30;99.90;;;;;;5187904;28;20658;-69
2021/05/19 10:34:00;;;;;;;3.63;2.80;;;17.30;99.90;;;;;;5191831;28;20214;-71
2021/05/19 10:36:37;;;;;;;9.48;3.38;;;17.30;99.90;;;;;;5208900;28;20195;-67
2021/05/19 10:39:09;;;;;;;5.53;2.80;;;17.50;99.90;;;;;;5208625;28;20194;-69
2021/05/19 10:41:45;;;;;;;6.03;2.88;;;17.40;99.90;;;;;;5207703;28;20245;-68
2021/05/19 10:44:27;;;;;;;3.80;2.58;;;17.40;99.90;;;;;;5195948;28;20210;-68
2021/05/19 10:50:10;;;;;;;4.32;2.75;;;17.30;99.90;;;;;;5208467;28;20201;-71
2021/05/19 10:58:52;;;;;;;4.43;2.78;;;17.30;99.90;;;;;;5124451;29;20232;-67
2021/05/19 11:01:40;;;;;;;6.88;2.83;;;17.30;99.90;;;;;;5124706;29;20189;-69
2021/05/19 11:04:16;;;;;;;3.17;2.70;;;17.40;99.90;;;;;;5123320;28;21025;-71
2021/05/19 11:06:59;;;;;;;4.18;2.75;;;17.60;99.90;;;;;;5125062;29;20663;-74
2021/05/19 11:09:37;;;;;;;4.60;2.35;;;17.40;99.90;;;;;;5124742;29;20628;-73
2021/05/19 11:12:21;;;;;;;3.95;2.55;;;17.50;99.90;;;;;;5124813;29;20268;-74
2021/05/19 11:15:04;;;;;;;6.38;3.45;;;17.30;99.90;;;;;;5124597;29;20216;-75
2021/05/19 11:20:13;;;;;;;4.60;2.58;;;17.00;99.90;;;;;;5125331;28;20216;-73
2021/05/19 11:22:45;;;;;;;4.80;2.50;;;17.10;99.90;;;;;;5124943;29;20598;-73
2021/05/19 11:25:22;;;;;;;4.10;3.10;;;17.30;99.90;;;;;;5124939;29;20248;-73
2021/05/19 11:28:00;;;;;;;4.68;2.80;;;17.30;99.90;;;;;;5124635;29;20209;-71
2021/05/19 11:30:32;;;;;;;8.32;2.67;;;17.20;99.90;;;;;;5197260;28;20202;-69
2021/05/19 11:33:09;;;;;;;7.15;2.95;;;17.20;99.90;;;;;;5207572;28;20217;-73
2021/05/19 11:35:41;;;;;;;6.80;3.10;;;17.20;99.90;;;;;;5206065;28;20194;-67
2021/05/19 11:38:15;;;;;;;5.22;3.33;;;17.20;99.90;;;;;;5207559;28;20190;-72
2021/05/19 11:40:50;;;;;;;5.23;3.10;;;16.90;99.90;;;;;;5207394;28;20202;-69
2021/05/19 11:43:23;;;;;;;3.95;3.05;;;16.80;99.90;;;;;;5207035;28;20226;-73
2021/05/19 11:45:59;;;;;;;4.65;2.90;;;16.70;99.90;;;;;;5207283;28;20191;-76
2021/05/19 11:48:31;;;;;;;3.93;2.53;;;16.50;99.90;;;;;;5208359;28;20205;-75
2021/05/19 11:51:24;;;;;;;4.47;3.65;;;16.60;99.90;;;;;;5207885;28;20532;-72
2021/05/19 11:54:00;;;;;;;4.00;2.83;;;16.60;99.90;;;;;;5207407;28;20198;-69
2021/05/19 11:56:46;;;;;;;4.00;3.00;;;16.80;99.90;;;;;;5207903;28;20610;-73
2021/05/19 11:59:28;;;;;;;6.15;3.25;;;17.00;99.90;;;;;;5207456;28;20329;-72
2021/05/19 12:02:09;;;;;;;5.07;3.00;;;17.10;99.90;;;;;;5206553;28;20232;-76
2021/05/19 12:04:42;;;;;;;3.93;2.53;;;17.00;99.90;;;;;;5207337;28;20194;-75
2021/05/19 12:07:16;;;;;;;3.13;2.38;;;17.10;99.90;;;;;;5207364;28;20559;-71
2021/05/19 12:09:49;;;;;;;4.03;2.38;;;17.20;99.90;;;;;;5202731;28;20267;-75
2021/05/19 12:12:21;;;;;;;4.60;2.70;;;17.30;99.90;;;;;;5195773;28;20209;-74
2021/05/19 12:14:56;;;;;;;6.10;2.08;;;17.40;99.90;;;;;;5198735;28;20306;-71
2021/05/19 12:17:45;;;;;;;6.47;2.00;;;17.50;99.30;;;;;;5195091;28;20206;-72
2021/05/19 12:20:21;;;;;;;4.60;2.53;;;17.70;99.40;;;;;;5198377;28;20217;-72
2021/05/19 12:23:03;;;;;;;2.75;2.20;;;17.80;99.20;;;;;;5193229;28;20249;-79
2021/05/19 12:25:36;;;;;;;5.47;2.47;;;17.80;97.90;;;;;;5190506;28;20202;-73
2021/05/19 12:28:09;;;;;;;5.25;2.53;;;17.70;98.50;;;;;;5193808;28;20562;-76
2021/05/19 12:30:48;;;;;;;5.30;2.08;;;17.60;99.50;;;;;;5191432;28;20592;-73
2021/05/19 12:33:25;;;;;;;3.60;2.10;;;17.60;99.60;;;;;;5200370;28;20209;-74
2021/05/19 12:35:57;;;;;;;3.63;2.10;;;17.50;99.30;;;;;;5194202;28;20205;-68
2021/05/19 12:38:45;;;;;;;3.35;2.00;;;17.50;99.20;;;;;;5192026;28;20253;-68
2021/05/19 12:41:41;;;;;;;4.53;2.65;;;17.40;99.90;;;;;;5201610;28;20209;-68
2021/05/19 12:44:16;;;;;;;6.32;2.58;;;17.30;99.90;;;;;;5194995;28;20668;-67
2021/05/19 12:47:06;;;;;;;6.63;2.70;;;17.10;99.90;;;;;;5198019;28;20213;-66
2021/05/19 12:49:43;;;;;;;3.50;2.17;;;17.10;99.90;;;;;;5196564;28;20596;-66
2021/05/19 12:52:17;;;;;;;4.00;2.37;;;16.90;99.90;;;;;;5201588;28;20221;-68
2021/05/19 12:54:52;;;;;;;3.58;2.25;;;17.00;99.90;;;;;;5197086;28;21887;-69
2021/05/19 12:57:29;;;;;;;4.68;2.55;;;17.20;99.90;;;;;;5197274;28;20204;-70
2021/05/19 13:00:12;;;;;;;4.37;2.10;;;17.50;99.90;;;;;;5186672;28;20245;-69
2021/05/19 13:02:46;;;;;;;4.35;2.00;;;17.70;99.90;;;;;;5194966;28;20224;-66
2021/05/19 13:05:19;;;;;;;3.47;1.95;;;17.60;99.70;;;;;;5192506;28;20313;-68
2021/05/19 13:07:52;;;;;;;4.00;2.53;;;17.30;99.20;;;;;;5197059;28;20250;-69
2021/05/19 13:10:31;;;;;;;9.25;2.05;;;17.20;99.90;;;;;;5189585;28;20551;-66
2021/05/19 13:13:28;;;;;;;5.85;2.42;;;17.20;99.90;;;;;;5194610;28;20203;-67
2021/05/19 13:16:09;;;;;;;3.17;2.17;;;17.30;99.90;;;;;;5187927;28;20218;-68
2021/05/19 13:18:58;;;;;;;2.88;2.17;;;17.10;99.90;;;;;;5185669;28;20215;-69
2021/05/19 13:24:18;;;;;;;3.65;1.80;;;16.90;99.90;;;;;;5189001;28;20230;-66
2021/05/19 13:27:02;;;;;;;4.73;1.90;;;17.00;99.90;;;;;;5197463;28;20205;-65
2021/05/19 13:29:36;;;;;;;5.47;2.72;;;17.10;99.90;;;;;;5197685;28;20202;-59
2021/05/19 13:32:17;;;;;;;5.85;3.20;;;17.10;99.90;;;;;;5193922;28;20232;-71
2021/05/19 13:37:22;;;;;;;5.20;2.97;;;16.80;99.90;;;;;;5202245;28;20194;-71
2021/05/19 13:39:55;;;;;;;5.45;2.75;;;16.70;99.90;;;;;;5200150;28;20222;-69
2021/05/19 13:42:27;;;;;;;8.00;3.03;;;16.60;99.90;;;;;;5192493;28;20222;-69
2021/05/19 13:44:59;;;;;;;7.80;3.00;;;16.50;99.90;;;;;;5190349;28;20289;-69
2021/05/19 13:47:31;;;;;;;5.23;2.70;;;16.50;99.90;;;;;;5203102;28;20199;-71
2021/05/19 13:50:04;;;;;;;8.70;2.93;;;16.50;99.90;;;;;;5189637;28;20314;-62
2021/05/19 13:52:37;;;;;;;6.37;2.70;;;16.30;99.90;;;;;;5199089;28;20285;-64
2021/05/19 13:55:09;;;;;;;5.15;2.80;;;16.10;99.90;;;;;;5193418;28;20221;-65
2021/05/19 13:57:41;;;;;;;7.67;2.93;;;15.90;99.90;;;;;;5190459;28;20206;-66
2021/05/19 14:00:15;;;;;;;5.27;2.47;;;15.70;99.90;;;;;;5194465;28;20238;-63
2021/05/19 14:02:50;;;;;;;5.10;2.63;;;15.50;99.90;;;;;;5200463;28;20198;-61
2021/05/19 14:05:26;;;;;;;4.93;2.73;;;15.50;99.90;;;;;;5197192;28;20656;-60
2021/05/19 14:07:58;;;;;;;8.43;2.40;;;15.40;99.90;;;;;;5192928;28;20280;-63
2021/05/19 14:10:32;;;;;;;4.67;2.60;;;15.40;99.90;;;;;;5194915;28;20206;-73